Argo Village, New York
Current Conditions -  °F | °C
As of 10:51 AM on Thursday 27 Nov 2014 (Local Time) from KJFK Reporting Station
Light Snow Light Snow  
Wind Chill: 34°   Ceiling: 2300
Heat Index: 39°   Visibility: 8mi
Dew Point: 31°   Wind: 7mph
Humidity: 73%   Direction: 350°N
Pressure: 30.01"   Gusts: NA
Location:  40.7013°N, 73.7074°W
Report Text: KJFK 271551Z 35006KT 8SM -RASN FEW017 BKN023 OVC036 04/M01 A3001 RMK AO2 RAB45SNB45 SLP162 VIS LWR NW-N P0000 T00391006 $
Loading
Personal Weather Stations






























Interactive Weather Map New forecast layout! Learn more

10-Day Weather Forecast

Advertisements
Track Severe Weather on mobile